sensor_id;sensor_type;location;lat;lon;timestamp;P1;durP1;ratioP1;P2;durP2;ratioP2
6131;SDS011;3097;42.692;23.278;2023-06-24T00:00:56;19.20;;;15.07;;
6131;SDS011;3097;42.692;23.278;2023-06-24T00:03:22;19.70;;;14.33;;
6131;SDS011;3097;42.692;23.278;2023-06-24T00:05:47;20.00;;;15.27;;
6131;SDS011;3097;42.692;23.278;2023-06-24T00:08:18;19.90;;;14.53;;
6131;SDS011;3097;42.692;23.278;2023-06-24T00:10:47;18.33;;;14.00;;
6131;SDS011;3097;42.692;23.278;2023-06-24T00:13:13;19.43;;;15.13;;
6131;SDS011;3097;42.692;23.278;2023-06-24T00:15:40;28.33;;;20.57;;
6131;SDS011;3097;42.692;23.278;2023-06-24T00:18:08;22.67;;;15.10;;
6131;SDS011;3097;42.692;23.278;2023-06-24T00:20:37;18.07;;;14.23;;
6131;SDS011;3097;42.692;23.278;2023-06-24T00:23:03;21.13;;;14.07;;
6131;SDS011;3097;42.692;23.278;2023-06-24T00:25:29;18.83;;;15.07;;
6131;SDS011;3097;42.692;23.278;2023-06-24T00:27:55;19.07;;;14.13;;
6131;SDS011;3097;42.692;23.278;2023-06-24T00:30:21;19.50;;;14.23;;
6131;SDS011;3097;42.692;23.278;2023-06-24T00:32:47;19.13;;;14.27;;
6131;SDS011;3097;42.692;23.278;2023-06-24T00:35:12;17.53;;;14.50;;
6131;SDS011;3097;42.692;23.278;2023-06-24T00:37:39;19.07;;;14.43;;
6131;SDS011;3097;42.692;23.278;2023-06-24T00:40:04;20.70;;;14.87;;
6131;SDS011;3097;42.692;23.278;2023-06-24T00:42:31;18.10;;;14.37;;
6131;SDS011;3097;42.692;23.278;2023-06-24T00:44:57;18.20;;;14.20;;
6131;SDS011;3097;42.692;23.278;2023-06-24T00:47:22;16.07;;;13.70;;
6131;SDS011;3097;42.692;23.278;2023-06-24T00:49:48;17.10;;;14.00;;
6131;SDS011;3097;42.692;23.278;2023-06-24T00:52:14;16.60;;;13.93;;
6131;SDS011;3097;42.692;23.278;2023-06-24T00:54:41;19.90;;;14.27;;
6131;SDS011;3097;42.692;23.278;2023-06-24T00:57:07;18.07;;;13.43;;
6131;SDS011;3097;42.692;23.278;2023-06-24T00:59:33;18.80;;;15.07;;
6131;SDS011;3097;42.692;23.278;2023-06-24T01:01:59;19.93;;;14.37;;
6131;SDS011;3097;42.692;23.278;2023-06-24T01:04:29;20.20;;;13.33;;
6131;SDS011;3097;42.692;23.278;2023-06-24T01:06:56;18.93;;;14.87;;
6131;SDS011;3097;42.692;23.278;2023-06-24T01:09:22;18.57;;;14.23;;
6131;SDS011;3097;42.692;23.278;2023-06-24T01:11:48;19.87;;;14.23;;
6131;SDS011;3097;42.692;23.278;2023-06-24T01:14:14;18.03;;;14.57;;
6131;SDS011;3097;42.692;23.278;2023-06-24T01:32:56;17.90;;;14.90;;
6131;SDS011;3097;42.692;23.278;2023-06-24T01:35:28;19.43;;;15.17;;
6131;SDS011;3097;42.692;23.278;2023-06-24T01:37:57;21.27;;;15.83;;
6131;SDS011;3097;42.692;23.278;2023-06-24T01:40:39;19.07;;;15.80;;
6131;SDS011;3097;42.692;23.278;2023-06-24T01:43:10;21.70;;;15.23;;
6131;SDS011;3097;42.692;23.278;2023-06-24T01:45:56;19.47;;;14.80;;
6131;SDS011;3097;42.692;23.278;2023-06-24T01:48:23;21.27;;;15.60;;
6131;SDS011;3097;42.692;23.278;2023-06-24T01:50:59;18.83;;;14.53;;
6131;SDS011;3097;42.692;23.278;2023-06-24T01:53:28;21.47;;;15.37;;
6131;SDS011;3097;42.692;23.278;2023-06-24T01:56:00;22.37;;;16.10;;
6131;SDS011;3097;42.692;23.278;2023-06-24T01:58:27;18.73;;;15.27;;
6131;SDS011;3097;42.692;23.278;2023-06-24T02:03:30;21.00;;;14.83;;
6131;SDS011;3097;42.692;23.278;2023-06-24T02:05:58;17.33;;;14.13;;
6131;SDS011;3097;42.692;23.278;2023-06-24T02:08:26;19.83;;;14.77;;
6131;SDS011;3097;42.692;23.278;2023-06-24T02:10:55;22.03;;;14.70;;
6131;SDS011;3097;42.692;23.278;2023-06-24T02:13:23;21.73;;;15.23;;
6131;SDS011;3097;42.692;23.278;2023-06-24T02:15:49;20.80;;;15.10;;
6131;SDS011;3097;42.692;23.278;2023-06-24T02:18:16;22.93;;;15.33;;
6131;SDS011;3097;42.692;23.278;2023-06-24T02:20:43;22.57;;;15.37;;
6131;SDS011;3097;42.692;23.278;2023-06-24T02:23:09;21.80;;;15.53;;
6131;SDS011;3097;42.692;23.278;2023-06-24T02:25:37;22.23;;;15.77;;
6131;SDS011;3097;42.692;23.278;2023-06-24T02:28:05;21.93;;;15.37;;
6131;SDS011;3097;42.692;23.278;2023-06-24T02:30:37;21.17;;;15.67;;
6131;SDS011;3097;42.692;23.278;2023-06-24T02:33:04;26.00;;;15.43;;
6131;SDS011;3097;42.692;23.278;2023-06-24T02:35:30;20.17;;;15.23;;
6131;SDS011;3097;42.692;23.278;2023-06-24T02:37:55;27.60;;;15.57;;
6131;SDS011;3097;42.692;23.278;2023-06-24T02:40:21;21.53;;;15.03;;
6131;SDS011;3097;42.692;23.278;2023-06-24T02:42:47;19.27;;;14.80;;
6131;SDS011;3097;42.692;23.278;2023-06-24T02:45:12;17.50;;;14.77;;
6131;SDS011;3097;42.692;23.278;2023-06-24T02:47:38;21.83;;;15.20;;
6131;SDS011;3097;42.692;23.278;2023-06-24T02:50:04;19.83;;;14.60;;
6131;SDS011;3097;42.692;23.278;2023-06-24T02:52:32;18.60;;;14.00;;
6131;SDS011;3097;42.692;23.278;2023-06-24T02:54:59;23.07;;;16.13;;
6131;SDS011;3097;42.692;23.278;2023-06-24T02:57:25;19.30;;;14.70;;
6131;SDS011;3097;42.692;23.278;2023-06-24T02:59:51;19.30;;;14.97;;
6131;SDS011;3097;42.692;23.278;2023-06-24T03:02:17;23.43;;;15.33;;
6131;SDS011;3097;42.692;23.278;2023-06-24T03:04:42;20.80;;;15.83;;
6131;SDS011;3097;42.692;23.278;2023-06-24T03:07:09;21.40;;;14.27;;
6131;SDS011;3097;42.692;23.278;2023-06-24T03:09:35;19.07;;;14.70;;
6131;SDS011;3097;42.692;23.278;2023-06-24T03:12:01;22.67;;;16.60;;
6131;SDS011;3097;42.692;23.278;2023-06-24T03:14:27;23.37;;;16.03;;
6131;SDS011;3097;42.692;23.278;2023-06-24T03:16:52;18.23;;;14.77;;
6131;SDS011;3097;42.692;23.278;2023-06-24T03:19:17;21.00;;;14.80;;
6131;SDS011;3097;42.692;23.278;2023-06-24T03:21:43;17.40;;;14.67;;
6131;SDS011;3097;42.692;23.278;2023-06-24T03:24:08;31.53;;;16.43;;
6131;SDS011;3097;42.692;23.278;2023-06-24T03:26:35;20.33;;;15.07;;
6131;SDS011;3097;42.692;23.278;2023-06-24T03:29:02;20.93;;;15.37;;
6131;SDS011;3097;42.692;23.278;2023-06-24T03:31:28;23.27;;;14.73;;
6131;SDS011;3097;42.692;23.278;2023-06-24T03:33:54;19.03;;;14.33;;
6131;SDS011;3097;42.692;23.278;2023-06-24T03:36:19;19.57;;;14.63;;
6131;SDS011;3097;42.692;23.278;2023-06-24T03:38:45;18.83;;;15.37;;
6131;SDS011;3097;42.692;23.278;2023-06-24T03:41:11;28.00;;;15.30;;
6131;SDS011;3097;42.692;23.278;2023-06-24T03:43:36;17.73;;;14.47;;
6131;SDS011;3097;42.692;23.278;2023-06-24T03:46:02;21.90;;;14.53;;
6131;SDS011;3097;42.692;23.278;2023-06-24T03:48:27;22.20;;;15.00;;
6131;SDS011;3097;42.692;23.278;2023-06-24T03:50:53;18.33;;;14.93;;
6131;SDS011;3097;42.692;23.278;2023-06-24T03:53:18;17.93;;;14.83;;
6131;SDS011;3097;42.692;23.278;2023-06-24T03:55:44;19.83;;;15.33;;
6131;SDS011;3097;42.692;23.278;2023-06-24T03:58:09;20.67;;;15.27;;
6131;SDS011;3097;42.692;23.278;2023-06-24T04:00:35;22.70;;;15.77;;
6131;SDS011;3097;42.692;23.278;2023-06-24T04:03:05;19.57;;;15.10;;
6131;SDS011;3097;42.692;23.278;2023-06-24T04:05:33;22.00;;;14.73;;
6131;SDS011;3097;42.692;23.278;2023-06-24T04:07:59;19.30;;;14.77;;
6131;SDS011;3097;42.692;23.278;2023-06-24T04:10:25;26.10;;;15.57;;
6131;SDS011;3097;42.692;23.278;2023-06-24T04:12:50;21.20;;;14.70;;
6131;SDS011;3097;42.692;23.278;2023-06-24T04:15:16;20.80;;;15.77;;
6131;SDS011;3097;42.692;23.278;2023-06-24T04:17:41;20.37;;;15.90;;
6131;SDS011;3097;42.692;23.278;2023-06-24T04:20:07;27.77;;;16.00;;
6131;SDS011;3097;42.692;23.278;2023-06-24T04:22:39;22.87;;;15.77;;
6131;SDS011;3097;42.692;23.278;2023-06-24T04:25:06;18.80;;;15.33;;
6131;SDS011;3097;42.692;23.278;2023-06-24T04:27:32;21.17;;;16.67;;
6131;SDS011;3097;42.692;23.278;2023-06-24T04:29:59;18.60;;;14.87;;
6131;SDS011;3097;42.692;23.278;2023-06-24T04:32:25;17.53;;;14.03;;
6131;SDS011;3097;42.692;23.278;2023-06-24T04:34:50;17.40;;;14.47;;
6131;SDS011;3097;42.692;23.278;2023-06-24T04:37:16;19.00;;;14.93;;
6131;SDS011;3097;42.692;23.278;2023-06-24T04:39:42;33.13;;;20.17;;
6131;SDS011;3097;42.692;23.278;2023-06-24T04:42:08;23.13;;;15.17;;
6131;SDS011;3097;42.692;23.278;2023-06-24T04:44:34;16.67;;;14.23;;
6131;SDS011;3097;42.692;23.278;2023-06-24T04:47:00;18.37;;;16.00;;
6131;SDS011;3097;42.692;23.278;2023-06-24T04:49:25;19.23;;;15.83;;
6131;SDS011;3097;42.692;23.278;2023-06-24T04:51:51;20.17;;;14.87;;
6131;SDS011;3097;42.692;23.278;2023-06-24T04:54:16;18.80;;;15.33;;
6131;SDS011;3097;42.692;23.278;2023-06-24T04:56:42;18.83;;;14.60;;
6131;SDS011;3097;42.692;23.278;2023-06-24T04:59:09;17.80;;;15.13;;
6131;SDS011;3097;42.692;23.278;2023-06-24T05:01:34;16.63;;;14.77;;
6131;SDS011;3097;42.692;23.278;2023-06-24T05:03:59;22.27;;;15.00;;
6131;SDS011;3097;42.692;23.278;2023-06-24T05:06:26;17.17;;;14.87;;
6131;SDS011;3097;42.692;23.278;2023-06-24T05:08:52;16.90;;;15.20;;
6131;SDS011;3097;42.692;23.278;2023-06-24T05:11:17;18.02;;;15.55;;
6131;SDS011;3097;42.692;23.278;2023-06-24T05:13:42;16.30;;;14.60;;
6131;SDS011;3097;42.692;23.278;2023-06-24T05:16:08;16.33;;;14.55;;
6131;SDS011;3097;42.692;23.278;2023-06-24T05:18:33;17.35;;;14.05;;
6131;SDS011;3097;42.692;23.278;2023-06-24T05:20:59;14.70;;;13.20;;
6131;SDS011;3097;42.692;23.278;2023-06-24T05:23:24;15.75;;;14.05;;
6131;SDS011;3097;42.692;23.278;2023-06-24T05:25:50;15.48;;;13.73;;
6131;SDS011;3097;42.692;23.278;2023-06-24T05:28:15;17.77;;;14.73;;
6131;SDS011;3097;42.692;23.278;2023-06-24T05:30:41;16.73;;;14.75;;
6131;SDS011;3097;42.692;23.278;2023-06-24T05:33:07;17.55;;;15.82;;
6131;SDS011;3097;42.692;23.278;2023-06-24T05:35:32;15.18;;;13.57;;
6131;SDS011;3097;42.692;23.278;2023-06-24T05:37:58;14.70;;;13.13;;
6131;SDS011;3097;42.692;23.278;2023-06-24T05:40:24;14.30;;;12.90;;
6131;SDS011;3097;42.692;23.278;2023-06-24T05:42:50;15.15;;;13.65;;
6131;SDS011;3097;42.692;23.278;2023-06-24T05:45:17;15.18;;;13.77;;
6131;SDS011;3097;42.692;23.278;2023-06-24T05:47:42;15.25;;;13.77;;
6131;SDS011;3097;42.692;23.278;2023-06-24T05:50:08;17.45;;;15.45;;
6131;SDS011;3097;42.692;23.278;2023-06-24T05:52:33;16.30;;;14.68;;
6131;SDS011;3097;42.692;23.278;2023-06-24T05:54:59;17.92;;;15.70;;
6131;SDS011;3097;42.692;23.278;2023-06-24T05:57:24;17.90;;;15.80;;
6131;SDS011;3097;42.692;23.278;2023-06-24T05:59:50;17.23;;;15.52;;
6131;SDS011;3097;42.692;23.278;2023-06-24T06:02:15;17.52;;;14.98;;
6131;SDS011;3097;42.692;23.278;2023-06-24T06:04:40;16.98;;;15.27;;
6131;SDS011;3097;42.692;23.278;2023-06-24T06:07:06;15.82;;;14.20;;
6131;SDS011;3097;42.692;23.278;2023-06-24T06:09:31;17.52;;;14.73;;
6131;SDS011;3097;42.692;23.278;2023-06-24T06:11:57;15.98;;;13.70;;
6131;SDS011;3097;42.692;23.278;2023-06-24T06:14:23;16.45;;;14.30;;
6131;SDS011;3097;42.692;23.278;2023-06-24T06:16:49;17.95;;;15.93;;
6131;SDS011;3097;42.692;23.278;2023-06-24T06:19:17;17.40;;;15.60;;
6131;SDS011;3097;42.692;23.278;2023-06-24T06:21:43;16.52;;;15.02;;
6131;SDS011;3097;42.692;23.278;2023-06-24T06:24:08;16.77;;;15.18;;
6131;SDS011;3097;42.692;23.278;2023-06-24T06:26:34;17.35;;;14.95;;
6131;SDS011;3097;42.692;23.278;2023-06-24T06:28:59;17.02;;;14.07;;
6131;SDS011;3097;42.692;23.278;2023-06-24T06:31:25;15.27;;;13.38;;
6131;SDS011;3097;42.692;23.278;2023-06-24T06:33:51;15.48;;;13.85;;
6131;SDS011;3097;42.692;23.278;2023-06-24T06:36:16;18.13;;;14.57;;
6131;SDS011;3097;42.692;23.278;2023-06-24T06:38:42;23.08;;;17.92;;
6131;SDS011;3097;42.692;23.278;2023-06-24T06:41:07;20.60;;;14.73;;
6131;SDS011;3097;42.692;23.278;2023-06-24T06:43:33;17.38;;;15.00;;
6131;SDS011;3097;42.692;23.278;2023-06-24T06:45:59;16.50;;;14.55;;
6131;SDS011;3097;42.692;23.278;2023-06-24T06:48:24;15.23;;;13.70;;
6131;SDS011;3097;42.692;23.278;2023-06-24T06:50:49;14.73;;;13.35;;
6131;SDS011;3097;42.692;23.278;2023-06-24T06:53:15;15.23;;;13.40;;
6131;SDS011;3097;42.692;23.278;2023-06-24T06:55:41;15.10;;;13.68;;
6131;SDS011;3097;42.692;23.278;2023-06-24T06:58:07;15.75;;;14.00;;
6131;SDS011;3097;42.692;23.278;2023-06-24T07:00:33;14.77;;;13.13;;
6131;SDS011;3097;42.692;23.278;2023-06-24T07:03:02;17.85;;;14.02;;
6131;SDS011;3097;42.692;23.278;2023-06-24T07:05:28;16.13;;;14.52;;
6131;SDS011;3097;42.692;23.278;2023-06-24T07:07:53;15.18;;;13.57;;
6131;SDS011;3097;42.692;23.278;2023-06-24T07:10:19;14.90;;;13.35;;
6131;SDS011;3097;42.692;23.278;2023-06-24T07:12:45;19.20;;;16.83;;
6131;SDS011;3097;42.692;23.278;2023-06-24T07:15:10;14.38;;;12.88;;
6131;SDS011;3097;42.692;23.278;2023-06-24T07:17:36;19.98;;;14.55;;
6131;SDS011;3097;42.692;23.278;2023-06-24T07:20:01;15.25;;;13.60;;
6131;SDS011;3097;42.692;23.278;2023-06-24T07:22:27;14.85;;;13.55;;
6131;SDS011;3097;42.692;23.278;2023-06-24T07:24:53;14.38;;;12.93;;
6131;SDS011;3097;42.692;23.278;2023-06-24T07:27:18;13.63;;;12.45;;
6131;SDS011;3097;42.692;23.278;2023-06-24T07:29:43;16.83;;;14.07;;
6131;SDS011;3097;42.692;23.278;2023-06-24T07:32:09;14.23;;;12.93;;
6131;SDS011;3097;42.692;23.278;2023-06-24T07:34:34;14.63;;;12.75;;
6131;SDS011;3097;42.692;23.278;2023-06-24T07:37:00;14.05;;;12.85;;
6131;SDS011;3097;42.692;23.278;2023-06-24T07:39:25;14.35;;;12.85;;
6131;SDS011;3097;42.692;23.278;2023-06-24T07:41:51;13.23;;;11.93;;
6131;SDS011;3097;42.692;23.278;2023-06-24T07:44:16;15.63;;;14.13;;
6131;SDS011;3097;42.692;23.278;2023-06-24T07:46:43;14.45;;;13.15;;
6131;SDS011;3097;42.692;23.278;2023-06-24T07:49:08;13.90;;;12.70;;
6131;SDS011;3097;42.692;23.278;2023-06-24T07:51:34;17.38;;;14.82;;
6131;SDS011;3097;42.692;23.278;2023-06-24T07:54:00;14.65;;;13.20;;
6131;SDS011;3097;42.692;23.278;2023-06-24T07:56:25;14.20;;;13.00;;
6131;SDS011;3097;42.692;23.278;2023-06-24T07:58:51;14.40;;;13.20;;
6131;SDS011;3097;42.692;23.278;2023-06-24T08:01:16;14.68;;;13.32;;
6131;SDS011;3097;42.692;23.278;2023-06-24T08:03:42;15.65;;;14.00;;
6131;SDS011;3097;42.692;23.278;2023-06-24T08:06:07;14.23;;;12.98;;
6131;SDS011;3097;42.692;23.278;2023-06-24T08:08:32;14.70;;;13.23;;
6131;SDS011;3097;42.692;23.278;2023-06-24T08:10:58;14.32;;;12.90;;
6131;SDS011;3097;42.692;23.278;2023-06-24T08:13:23;14.63;;;13.20;;
6131;SDS011;3097;42.692;23.278;2023-06-24T08:15:49;14.40;;;13.20;;
6131;SDS011;3097;42.692;23.278;2023-06-24T08:18:14;16.10;;;14.40;;
6131;SDS011;3097;42.692;23.278;2023-06-24T08:20:39;14.35;;;13.13;;
6131;SDS011;3097;42.692;23.278;2023-06-24T08:23:05;15.77;;;13.52;;
6131;SDS011;3097;42.692;23.278;2023-06-24T08:25:30;15.98;;;13.98;;
6131;SDS011;3097;42.692;23.278;2023-06-24T08:27:56;15.93;;;14.43;;
6131;SDS011;3097;42.692;23.278;2023-06-24T08:30:21;15.88;;;13.10;;
6131;SDS011;3097;42.692;23.278;2023-06-24T08:32:47;16.35;;;13.85;;
6131;SDS011;3097;42.692;23.278;2023-06-24T08:35:12;14.82;;;13.45;;
6131;SDS011;3097;42.692;23.278;2023-06-24T08:37:38;15.50;;;14.00;;
6131;SDS011;3097;42.692;23.278;2023-06-24T08:40:03;14.60;;;13.30;;
6131;SDS011;3097;42.692;23.278;2023-06-24T08:42:30;14.55;;;13.25;;
6131;SDS011;3097;42.692;23.278;2023-06-24T08:44:56;14.70;;;13.35;;
6131;SDS011;3097;42.692;23.278;2023-06-24T08:47:25;14.52;;;13.15;;
6131;SDS011;3097;42.692;23.278;2023-06-24T08:50:04;15.68;;;14.13;;
6131;SDS011;3097;42.692;23.278;2023-06-24T08:52:35;15.25;;;13.60;;
6131;SDS011;3097;42.692;23.278;2023-06-24T08:55:04;15.30;;;13.93;;
6131;SDS011;3097;42.692;23.278;2023-06-24T08:57:31;15.68;;;13.85;;
6131;SDS011;3097;42.692;23.278;2023-06-24T08:59:56;14.60;;;13.38;;
6131;SDS011;3097;42.692;23.278;2023-06-24T09:02:22;15.77;;;14.10;;
6131;SDS011;3097;42.692;23.278;2023-06-24T09:04:47;15.65;;;14.15;;
6131;SDS011;3097;42.692;23.278;2023-06-24T09:07:27;23.25;;;20.85;;
6131;SDS011;3097;42.692;23.278;2023-06-24T09:09:53;17.10;;;15.43;;
6131;SDS011;3097;42.692;23.278;2023-06-24T09:12:18;18.23;;;16.52;;
6131;SDS011;3097;42.692;23.278;2023-06-24T09:14:50;14.80;;;13.32;;
6131;SDS011;3097;42.692;23.278;2023-06-24T09:17:16;14.30;;;12.98;;
6131;SDS011;3097;42.692;23.278;2023-06-24T09:19:42;15.25;;;13.85;;
6131;SDS011;3097;42.692;23.278;2023-06-24T09:22:08;15.20;;;13.80;;
6131;SDS011;3097;42.692;23.278;2023-06-24T09:24:41;15.50;;;13.88;;
6131;SDS011;3097;42.692;23.278;2023-06-24T09:27:08;14.80;;;13.50;;
6131;SDS011;3097;42.692;23.278;2023-06-24T09:29:34;16.70;;;13.52;;
6131;SDS011;3097;42.692;23.278;2023-06-24T09:32:03;14.52;;;13.05;;
6131;SDS011;3097;42.692;23.278;2023-06-24T09:34:29;15.60;;;14.20;;
6131;SDS011;3097;42.692;23.278;2023-06-24T09:36:56;14.55;;;13.10;;
6131;SDS011;3097;42.692;23.278;2023-06-24T09:39:22;16.27;;;14.75;;
6131;SDS011;3097;42.692;23.278;2023-06-24T09:41:55;14.55;;;13.25;;
6131;SDS011;3097;42.692;23.278;2023-06-24T09:44:21;16.17;;;14.00;;
6131;SDS011;3097;42.692;23.278;2023-06-24T09:46:47;14.18;;;12.80;;
6131;SDS011;3097;42.692;23.278;2023-06-24T09:49:13;14.00;;;12.65;;
6131;SDS011;3097;42.692;23.278;2023-06-24T09:51:40;15.23;;;13.73;;
6131;SDS011;3097;42.692;23.278;2023-06-24T09:54:09;14.32;;;12.95;;
6131;SDS011;3097;42.692;23.278;2023-06-24T09:56:37;14.65;;;13.35;;
6131;SDS011;3097;42.692;23.278;2023-06-24T09:59:09;15.52;;;12.88;;
6131;SDS011;3097;42.692;23.278;2023-06-24T10:01:38;14.88;;;13.48;;
6131;SDS011;3097;42.692;23.278;2023-06-24T10:04:06;15.02;;;13.48;;
6131;SDS011;3097;42.692;23.278;2023-06-24T10:06:33;15.52;;;13.20;;
6131;SDS011;3097;42.692;23.278;2023-06-24T10:08:59;14.35;;;13.10;;
6131;SDS011;3097;42.692;23.278;2023-06-24T10:11:25;13.48;;;12.20;;
6131;SDS011;3097;42.692;23.278;2023-06-24T10:13:51;13.55;;;12.20;;
6131;SDS011;3097;42.692;23.278;2023-06-24T10:16:17;13.13;;;11.82;;
6131;SDS011;3097;42.692;23.278;2023-06-24T10:18:43;13.10;;;12.00;;
6131;SDS011;3097;42.692;23.278;2023-06-24T10:21:09;14.32;;;12.85;;
6131;SDS011;3097;42.692;23.278;2023-06-24T10:23:39;15.32;;;12.90;;
6131;SDS011;3097;42.692;23.278;2023-06-24T10:26:26;13.35;;;12.15;;
6131;SDS011;3097;42.692;23.278;2023-06-24T10:36:52;14.68;;;12.43;;
6131;SDS011;3097;42.692;23.278;2023-06-24T10:44:51;13.75;;;12.45;;
6131;SDS011;3097;42.692;23.278;2023-06-24T10:47:18;14.40;;;11.50;;
6131;SDS011;3097;42.692;23.278;2023-06-24T10:49:44;12.23;;;11.05;;
6131;SDS011;3097;42.692;23.278;2023-06-24T10:52:13;12.43;;;11.40;;
6131;SDS011;3097;42.692;23.278;2023-06-24T10:54:39;12.55;;;11.43;;
6131;SDS011;3097;42.692;23.278;2023-06-24T10:57:06;11.85;;;10.63;;
6131;SDS011;3097;42.692;23.278;2023-06-24T10:59:36;12.15;;;10.98;;
6131;SDS011;3097;42.692;23.278;2023-06-24T11:02:05;10.93;;;10.13;;
6131;SDS011;3097;42.692;23.278;2023-06-24T11:04:30;10.82;;;9.75;;
6131;SDS011;3097;42.692;23.278;2023-06-24T11:06:59;11.25;;;10.35;;
6131;SDS011;3097;42.692;23.278;2023-06-24T11:09:25;11.13;;;9.38;;
6131;SDS011;3097;42.692;23.278;2023-06-24T11:11:51;13.43;;;9.45;;
6131;SDS011;3097;42.692;23.278;2023-06-24T11:14:17;10.43;;;9.60;;
6131;SDS011;3097;42.692;23.278;2023-06-24T11:16:42;9.60;;;8.75;;
6131;SDS011;3097;42.692;23.278;2023-06-24T11:19:10;10.18;;;9.38;;
6131;SDS011;3097;42.692;23.278;2023-06-24T11:21:35;9.68;;;8.88;;
6131;SDS011;3097;42.692;23.278;2023-06-24T11:24:03;10.40;;;9.50;;
6131;SDS011;3097;42.692;23.278;2023-06-24T11:26:30;10.77;;;9.85;;
6131;SDS011;3097;42.692;23.278;2023-06-24T11:28:56;11.15;;;10.07;;
6131;SDS011;3097;42.692;23.278;2023-06-24T11:31:27;10.98;;;9.88;;
6131;SDS011;3097;42.692;23.278;2023-06-24T11:33:53;10.65;;;9.35;;
6131;SDS011;3097;42.692;23.278;2023-06-24T11:36:19;11.25;;;10.18;;
6131;SDS011;3097;42.692;23.278;2023-06-24T11:38:48;9.27;;;8.57;;
6131;SDS011;3097;42.692;23.278;2023-06-24T11:41:14;9.68;;;8.77;;
6131;SDS011;3097;42.692;23.278;2023-06-24T11:43:44;8.38;;;7.65;;
6131;SDS011;3097;42.692;23.278;2023-06-24T11:46:10;9.15;;;8.35;;
6131;SDS011;3097;42.692;23.278;2023-06-24T11:48:45;10.10;;;9.30;;
6131;SDS011;3097;42.692;23.278;2023-06-24T11:51:14;10.23;;;9.13;;
6131;SDS011;3097;42.692;23.278;2023-06-24T11:53:45;10.75;;;8.82;;
6131;SDS011;3097;42.692;23.278;2023-06-24T11:56:11;9.90;;;9.10;;
6131;SDS011;3097;42.692;23.278;2023-06-24T11:58:37;10.05;;;9.13;;
6131;SDS011;3097;42.692;23.278;2023-06-24T12:01:03;10.27;;;9.27;;
6131;SDS011;3097;42.692;23.278;2023-06-24T12:03:29;9.48;;;8.57;;
6131;SDS011;3097;42.692;23.278;2023-06-24T12:05:57;10.18;;;8.90;;
6131;SDS011;3097;42.692;23.278;2023-06-24T12:08:22;10.10;;;9.23;;
6131;SDS011;3097;42.692;23.278;2023-06-24T12:10:48;9.25;;;8.52;;
6131;SDS011;3097;42.692;23.278;2023-06-24T12:13:13;9.88;;;9.05;;
6131;SDS011;3097;42.692;23.278;2023-06-24T12:15:39;9.77;;;8.82;;
6131;SDS011;3097;42.692;23.278;2023-06-24T12:18:05;9.38;;;8.68;;
6131;SDS011;3097;42.692;23.278;2023-06-24T12:20:30;9.70;;;8.90;;
6131;SDS011;3097;42.692;23.278;2023-06-24T12:22:57;9.15;;;8.45;;
6131;SDS011;3097;42.692;23.278;2023-06-24T12:25:23;9.38;;;8.65;;
6131;SDS011;3097;42.692;23.278;2023-06-24T12:27:49;8.68;;;8.07;;
6131;SDS011;3097;42.692;23.278;2023-06-24T12:30:15;9.13;;;8.43;;
6131;SDS011;3097;42.692;23.278;2023-06-24T12:32:41;9.20;;;8.35;;
6131;SDS011;3097;42.692;23.278;2023-06-24T12:35:08;10.10;;;9.30;;
6131;SDS011;3097;42.692;23.278;2023-06-24T12:37:36;9.48;;;8.65;;
6131;SDS011;3097;42.692;23.278;2023-06-24T12:40:04;9.90;;;9.10;;
6131;SDS011;3097;42.692;23.278;2023-06-24T12:42:30;10.13;;;9.27;;
6131;SDS011;3097;42.692;23.278;2023-06-24T12:44:56;10.20;;;9.40;;
6131;SDS011;3097;42.692;23.278;2023-06-24T12:47:21;10.02;;;9.23;;
6131;SDS011;3097;42.692;23.278;2023-06-24T12:49:48;9.82;;;9.02;;
6131;SDS011;3097;42.692;23.278;2023-06-24T12:52:14;10.40;;;9.50;;
6131;SDS011;3097;42.692;23.278;2023-06-24T12:54:40;24.35;;;20.27;;
6131;SDS011;3097;42.692;23.278;2023-06-24T12:57:06;10.93;;;9.93;;
6131;SDS011;3097;42.692;23.278;2023-06-24T12:59:31;12.35;;;9.60;;
6131;SDS011;3097;42.692;23.278;2023-06-24T13:01:57;11.30;;;10.05;;
6131;SDS011;3097;42.692;23.278;2023-06-24T13:04:22;11.63;;;9.85;;
6131;SDS011;3097;42.692;23.278;2023-06-24T13:06:49;10.50;;;9.63;;
6131;SDS011;3097;42.692;23.278;2023-06-24T13:09:16;18.08;;;10.73;;
6131;SDS011;3097;42.692;23.278;2023-06-24T13:11:41;15.68;;;13.38;;
6131;SDS011;3097;42.692;23.278;2023-06-24T13:14:07;12.25;;;11.10;;
6131;SDS011;3097;42.692;23.278;2023-06-24T13:16:35;14.13;;;10.38;;
6131;SDS011;3097;42.692;23.278;2023-06-24T13:19:01;12.90;;;9.98;;
6131;SDS011;3097;42.692;23.278;2023-06-24T13:21:27;13.85;;;10.25;;
6131;SDS011;3097;42.692;23.278;2023-06-24T13:23:52;15.40;;;10.70;;
6131;SDS011;3097;42.692;23.278;2023-06-24T13:26:17;13.90;;;9.57;;
6131;SDS011;3097;42.692;23.278;2023-06-24T13:28:43;14.27;;;10.90;;
6131;SDS011;3097;42.692;23.278;2023-06-24T13:31:09;17.10;;;9.80;;
6131;SDS011;3097;42.692;23.278;2023-06-24T13:33:34;14.32;;;9.70;;
6131;SDS011;3097;42.692;23.278;2023-06-24T13:36:00;17.73;;;8.40;;
6131;SDS011;3097;42.692;23.278;2023-06-24T13:38:25;14.23;;;7.60;;
6131;SDS011;3097;42.692;23.278;2023-06-24T13:40:51;19.90;;;7.23;;
6131;SDS011;3097;42.692;23.278;2023-06-24T13:43:16;17.63;;;7.17;;
6131;SDS011;3097;42.692;23.278;2023-06-24T13:45:42;13.53;;;7.53;;
6131;SDS011;3097;42.692;23.278;2023-06-24T13:48:09;12.10;;;8.57;;
6131;SDS011;3097;42.692;23.278;2023-06-24T13:50:34;11.67;;;8.57;;
6131;SDS011;3097;42.692;23.278;2023-06-24T13:53:00;11.07;;;7.87;;
6131;SDS011;3097;42.692;23.278;2023-06-24T13:55:25;13.87;;;7.87;;
6131;SDS011;3097;42.692;23.278;2023-06-24T13:57:51;13.43;;;8.30;;
6131;SDS011;3097;42.692;23.278;2023-06-24T14:00:16;8.93;;;7.67;;
6131;SDS011;3097;42.692;23.278;2023-06-24T14:02:42;10.93;;;9.73;;
6131;SDS011;3097;42.692;23.278;2023-06-24T14:05:08;12.03;;;7.60;;
6131;SDS011;3097;42.692;23.278;2023-06-24T14:07:33;10.83;;;8.10;;
6131;SDS011;3097;42.692;23.278;2023-06-24T14:09:59;12.23;;;7.20;;
6131;SDS011;3097;42.692;23.278;2023-06-24T14:12:25;9.27;;;7.00;;
6131;SDS011;3097;42.692;23.278;2023-06-24T14:14:51;13.27;;;7.17;;
6131;SDS011;3097;42.692;23.278;2023-06-24T14:17:16;9.40;;;7.27;;
6131;SDS011;3097;42.692;23.278;2023-06-24T14:19:42;15.03;;;9.20;;
6131;SDS011;3097;42.692;23.278;2023-06-24T14:22:07;7.30;;;6.70;;
6131;SDS011;3097;42.692;23.278;2023-06-24T14:24:34;14.63;;;7.40;;
6131;SDS011;3097;42.692;23.278;2023-06-24T14:27:00;7.63;;;6.43;;
6131;SDS011;3097;42.692;23.278;2023-06-24T14:29:26;7.63;;;5.90;;
6131;SDS011;3097;42.692;23.278;2023-06-24T14:31:52;9.80;;;6.60;;
6131;SDS011;3097;42.692;23.278;2023-06-24T14:34:17;8.40;;;6.40;;
6131;SDS011;3097;42.692;23.278;2023-06-24T14:36:43;9.63;;;6.17;;
6131;SDS011;3097;42.692;23.278;2023-06-24T14:39:09;7.37;;;6.47;;
6131;SDS011;3097;42.692;23.278;2023-06-24T14:41:34;14.47;;;6.33;;
6131;SDS011;3097;42.692;23.278;2023-06-24T14:44:00;7.67;;;5.70;;
6131;SDS011;3097;42.692;23.278;2023-06-24T14:46:26;8.73;;;5.77;;
6131;SDS011;3097;42.692;23.278;2023-06-24T14:48:51;10.23;;;6.07;;
6131;SDS011;3097;42.692;23.278;2023-06-24T14:51:16;14.83;;;5.67;;
6131;SDS011;3097;42.692;23.278;2023-06-24T14:53:42;9.43;;;5.90;;
6131;SDS011;3097;42.692;23.278;2023-06-24T14:56:07;12.60;;;5.90;;
6131;SDS011;3097;42.692;23.278;2023-06-24T14:58:33;15.33;;;10.20;;
6131;SDS011;3097;42.692;23.278;2023-06-24T15:00:59;11.60;;;6.67;;
6131;SDS011;3097;42.692;23.278;2023-06-24T15:03:24;9.53;;;7.30;;
6131;SDS011;3097;42.692;23.278;2023-06-24T15:05:49;10.43;;;8.23;;